sensor_id;sensor_type;location;lat;lon;timestamp;P1;durP1;ratioP1;P2;durP2;ratioP2
3779;SDS011;1905;52.482;9.802;2022-10-03T00:01:06;11.27;;;2.50;;
3779;SDS011;1905;52.482;9.802;2022-10-03T00:03:46;13.97;;;2.80;;
3779;SDS011;1905;52.482;9.802;2022-10-03T00:06:23;10.87;;;2.30;;
3779;SDS011;1905;52.482;9.802;2022-10-03T00:09:04;10.73;;;3.07;;
3779;SDS011;1905;52.482;9.802;2022-10-03T00:11:50;7.80;;;2.50;;
3779;SDS011;1905;52.482;9.802;2022-10-03T00:14:29;8.93;;;2.67;;
3779;SDS011;1905;52.482;9.802;2022-10-03T00:17:06;10.07;;;2.20;;
3779;SDS011;1905;52.482;9.802;2022-10-03T00:19:42;5.47;;;2.50;;
3779;SDS011;1905;52.482;9.802;2022-10-03T00:22:21;4.73;;;2.20;;
3779;SDS011;1905;52.482;9.802;2022-10-03T00:25:01;9.50;;;2.60;;
3779;SDS011;1905;52.482;9.802;2022-10-03T00:27:43;10.87;;;2.80;;
3779;SDS011;1905;52.482;9.802;2022-10-03T00:30:15;2.37;;;1.93;;
3779;SDS011;1905;52.482;9.802;2022-10-03T00:32:49;3.20;;;1.70;;
3779;SDS011;1905;52.482;9.802;2022-10-03T00:35:34;5.60;;;2.33;;
3779;SDS011;1905;52.482;9.802;2022-10-03T00:38:23;3.47;;;1.95;;
3779;SDS011;1905;52.482;9.802;2022-10-03T00:44:24;11.73;;;2.47;;
3779;SDS011;1905;52.482;9.802;2022-10-03T00:50:07;3.53;;;1.70;;
3779;SDS011;1905;52.482;9.802;2022-10-03T00:53:14;4.60;;;2.03;;
3779;SDS011;1905;52.482;9.802;2022-10-03T00:58:51;11.18;;;2.40;;
3779;SDS011;1905;52.482;9.802;2022-10-03T01:01:33;3.80;;;2.13;;
3779;SDS011;1905;52.482;9.802;2022-10-03T01:04:11;5.40;;;2.17;;
3779;SDS011;1905;52.482;9.802;2022-10-03T01:06:48;3.27;;;2.00;;
3779;SDS011;1905;52.482;9.802;2022-10-03T01:09:31;9.57;;;2.17;;
3779;SDS011;1905;52.482;9.802;2022-10-03T01:12:12;9.00;;;2.73;;
3779;SDS011;1905;52.482;9.802;2022-10-03T01:15:06;11.00;;;3.07;;
3779;SDS011;1905;52.482;9.802;2022-10-03T01:17:46;6.83;;;2.67;;
3779;SDS011;1905;52.482;9.802;2022-10-03T01:20:24;8.03;;;2.10;;
3779;SDS011;1905;52.482;9.802;2022-10-03T01:23:05;3.90;;;2.20;;
3779;SDS011;1905;52.482;9.802;2022-10-03T01:26:02;6.60;;;2.17;;
3779;SDS011;1905;52.482;9.802;2022-10-03T01:28:44;4.60;;;2.10;;
3779;SDS011;1905;52.482;9.802;2022-10-03T01:31:35;10.40;;;2.10;;
3779;SDS011;1905;52.482;9.802;2022-10-03T01:34:11;5.87;;;1.70;;
3779;SDS011;1905;52.482;9.802;2022-10-03T01:36:46;10.90;;;3.50;;
3779;SDS011;1905;52.482;9.802;2022-10-03T01:39:26;6.17;;;2.87;;
3779;SDS011;1905;52.482;9.802;2022-10-03T01:42:02;7.30;;;2.87;;
3779;SDS011;1905;52.482;9.802;2022-10-03T01:44:40;5.83;;;3.27;;
3779;SDS011;1905;52.482;9.802;2022-10-03T01:47:23;2.87;;;1.90;;
3779;SDS011;1905;52.482;9.802;2022-10-03T01:49:58;11.00;;;2.25;;
3779;SDS011;1905;52.482;9.802;2022-10-03T01:52:40;4.90;;;1.83;;
3779;SDS011;1905;52.482;9.802;2022-10-03T01:55:19;8.30;;;2.77;;
3779;SDS011;1905;52.482;9.802;2022-10-03T01:57:52;4.70;;;1.73;;
3779;SDS011;1905;52.482;9.802;2022-10-03T02:00:29;8.57;;;2.27;;
3779;SDS011;1905;52.482;9.802;2022-10-03T02:03:04;5.03;;;2.40;;
3779;SDS011;1905;52.482;9.802;2022-10-03T02:05:39;8.23;;;2.60;;
3779;SDS011;1905;52.482;9.802;2022-10-03T02:08:16;6.23;;;2.77;;
3779;SDS011;1905;52.482;9.802;2022-10-03T02:10:57;8.90;;;3.23;;
3779;SDS011;1905;52.482;9.802;2022-10-03T02:13:29;4.10;;;1.93;;
3779;SDS011;1905;52.482;9.802;2022-10-03T02:16:13;3.53;;;2.30;;
3779;SDS011;1905;52.482;9.802;2022-10-03T02:18:51;3.30;;;2.60;;
3779;SDS011;1905;52.482;9.802;2022-10-03T02:21:26;6.33;;;2.47;;
3779;SDS011;1905;52.482;9.802;2022-10-03T02:24:06;9.80;;;2.60;;
3779;SDS011;1905;52.482;9.802;2022-10-03T02:29:48;6.27;;;1.97;;
3779;SDS011;1905;52.482;9.802;2022-10-03T02:35:27;7.03;;;2.17;;
3779;SDS011;1905;52.482;9.802;2022-10-03T02:38:17;4.67;;;1.83;;
3779;SDS011;1905;52.482;9.802;2022-10-03T02:41:08;7.13;;;2.20;;
3779;SDS011;1905;52.482;9.802;2022-10-03T02:44:06;4.87;;;2.77;;
3779;SDS011;1905;52.482;9.802;2022-10-03T02:50:23;10.00;;;2.57;;
3779;SDS011;1905;52.482;9.802;2022-10-03T03:02:50;4.80;;;2.27;;
3779;SDS011;1905;52.482;9.802;2022-10-03T03:08:57;8.63;;;2.40;;
3779;SDS011;1905;52.482;9.802;2022-10-03T03:11:37;4.23;;;2.27;;
3779;SDS011;1905;52.482;9.802;2022-10-03T03:17:29;5.73;;;1.97;;
3779;SDS011;1905;52.482;9.802;2022-10-03T03:22:56;5.53;;;1.83;;
3779;SDS011;1905;52.482;9.802;2022-10-03T03:25:49;5.30;;;2.10;;
3779;SDS011;1905;52.482;9.802;2022-10-03T03:28:32;4.00;;;1.73;;
3779;SDS011;1905;52.482;9.802;2022-10-03T03:31:12;7.30;;;2.07;;
3779;SDS011;1905;52.482;9.802;2022-10-03T03:33:48;7.47;;;2.20;;
3779;SDS011;1905;52.482;9.802;2022-10-03T03:36:26;4.10;;;2.40;;
3779;SDS011;1905;52.482;9.802;2022-10-03T03:39:08;10.20;;;3.23;;
3779;SDS011;1905;52.482;9.802;2022-10-03T03:41:54;7.50;;;2.27;;
3779;SDS011;1905;52.482;9.802;2022-10-03T03:44:41;6.00;;;2.27;;
3779;SDS011;1905;52.482;9.802;2022-10-03T03:50:30;6.40;;;2.30;;
3779;SDS011;1905;52.482;9.802;2022-10-03T03:53:15;5.40;;;2.40;;
3779;SDS011;1905;52.482;9.802;2022-10-03T03:56:12;5.07;;;2.70;;
3779;SDS011;1905;52.482;9.802;2022-10-03T03:58:53;6.77;;;2.60;;
3779;SDS011;1905;52.482;9.802;2022-10-03T04:01:35;8.57;;;2.40;;
3779;SDS011;1905;52.482;9.802;2022-10-03T04:04:27;9.73;;;2.17;;
3779;SDS011;1905;52.482;9.802;2022-10-03T04:07:08;9.63;;;2.57;;
3779;SDS011;1905;52.482;9.802;2022-10-03T04:09:52;5.50;;;1.97;;
3779;SDS011;1905;52.482;9.802;2022-10-03T04:12:45;6.40;;;2.87;;
3779;SDS011;1905;52.482;9.802;2022-10-03T04:15:33;11.65;;;2.90;;
3779;SDS011;1905;52.482;9.802;2022-10-03T04:18:13;6.73;;;3.03;;
3779;SDS011;1905;52.482;9.802;2022-10-03T04:24:08;7.57;;;2.20;;
3779;SDS011;1905;52.482;9.802;2022-10-03T04:26:56;4.65;;;2.55;;
3779;SDS011;1905;52.482;9.802;2022-10-03T04:29:42;4.00;;;2.20;;
3779;SDS011;1905;52.482;9.802;2022-10-03T04:32:17;4.77;;;3.00;;
3779;SDS011;1905;52.482;9.802;2022-10-03T04:35:06;9.30;;;2.10;;
3779;SDS011;1905;52.482;9.802;2022-10-03T04:37:51;3.60;;;2.53;;
3779;SDS011;1905;52.482;9.802;2022-10-03T04:40:29;2.20;;;2.00;;
3779;SDS011;1905;52.482;9.802;2022-10-03T04:43:11;6.37;;;2.20;;
3779;SDS011;1905;52.482;9.802;2022-10-03T04:45:55;4.10;;;1.50;;
3779;SDS011;1905;52.482;9.802;2022-10-03T04:48:37;6.60;;;2.13;;
3779;SDS011;1905;52.482;9.802;2022-10-03T04:51:11;8.40;;;1.80;;
3779;SDS011;1905;52.482;9.802;2022-10-03T04:53:48;2.10;;;1.80;;
3779;SDS011;1905;52.482;9.802;2022-10-03T04:56:27;7.67;;;2.00;;
3779;SDS011;1905;52.482;9.802;2022-10-03T04:59:10;5.17;;;1.90;;
3779;SDS011;1905;52.482;9.802;2022-10-03T05:01:52;6.93;;;2.03;;
3779;SDS011;1905;52.482;9.802;2022-10-03T05:04:29;5.40;;;2.40;;
3779;SDS011;1905;52.482;9.802;2022-10-03T05:07:05;4.78;;;1.83;;
3779;SDS011;1905;52.482;9.802;2022-10-03T05:09:42;3.50;;;1.80;;
3779;SDS011;1905;52.482;9.802;2022-10-03T05:12:16;10.97;;;2.33;;
3779;SDS011;1905;52.482;9.802;2022-10-03T05:14:56;6.97;;;1.83;;
3779;SDS011;1905;52.482;9.802;2022-10-03T05:17:39;4.20;;;1.97;;
3779;SDS011;1905;52.482;9.802;2022-10-03T05:20:19;6.57;;;2.17;;
3779;SDS011;1905;52.482;9.802;2022-10-03T05:22:54;4.10;;;1.67;;
3779;SDS011;1905;52.482;9.802;2022-10-03T05:25:28;3.83;;;1.90;;
3779;SDS011;1905;52.482;9.802;2022-10-03T05:28:12;9.50;;;2.00;;
3779;SDS011;1905;52.482;9.802;2022-10-03T05:30:48;4.83;;;2.80;;
3779;SDS011;1905;52.482;9.802;2022-10-03T05:33:27;3.37;;;1.77;;
3779;SDS011;1905;52.482;9.802;2022-10-03T05:36:07;13.50;;;3.07;;
3779;SDS011;1905;52.482;9.802;2022-10-03T05:38:57;2.10;;;1.60;;
3779;SDS011;1905;52.482;9.802;2022-10-03T05:42:00;5.73;;;2.37;;
3779;SDS011;1905;52.482;9.802;2022-10-03T05:44:50;3.43;;;1.60;;
3779;SDS011;1905;52.482;9.802;2022-10-03T05:47:28;6.80;;;2.17;;
3779;SDS011;1905;52.482;9.802;2022-10-03T05:50:16;7.10;;;2.27;;
3779;SDS011;1905;52.482;9.802;2022-10-03T05:53:05;6.47;;;1.70;;
3779;SDS011;1905;52.482;9.802;2022-10-03T05:55:50;4.40;;;2.43;;
3779;SDS011;1905;52.482;9.802;2022-10-03T05:58:42;9.27;;;2.70;;
3779;SDS011;1905;52.482;9.802;2022-10-03T06:01:33;5.60;;;2.17;;
3779;SDS011;1905;52.482;9.802;2022-10-03T06:04:39;2.50;;;1.50;;
3779;SDS011;1905;52.482;9.802;2022-10-03T06:07:24;6.87;;;2.10;;
3779;SDS011;1905;52.482;9.802;2022-10-03T06:10:04;3.30;;;2.20;;
3779;SDS011;1905;52.482;9.802;2022-10-03T06:12:48;6.40;;;2.23;;
3779;SDS011;1905;52.482;9.802;2022-10-03T06:15:31;6.50;;;2.50;;
3779;SDS011;1905;52.482;9.802;2022-10-03T06:21:30;6.30;;;2.17;;
3779;SDS011;1905;52.482;9.802;2022-10-03T06:24:26;5.03;;;2.13;;
3779;SDS011;1905;52.482;9.802;2022-10-03T06:30:19;4.83;;;2.03;;
3779;SDS011;1905;52.482;9.802;2022-10-03T06:33:10;7.03;;;2.00;;
3779;SDS011;1905;52.482;9.802;2022-10-03T06:42:00;11.37;;;2.30;;
3779;SDS011;1905;52.482;9.802;2022-10-03T06:51:12;5.20;;;2.30;;
3779;SDS011;1905;52.482;9.802;2022-10-03T06:54:00;7.03;;;2.57;;
3779;SDS011;1905;52.482;9.802;2022-10-03T06:56:55;5.43;;;2.57;;
3779;SDS011;1905;52.482;9.802;2022-10-03T06:59:51;7.60;;;2.20;;
3779;SDS011;1905;52.482;9.802;2022-10-03T07:02:39;15.60;;;2.90;;
3779;SDS011;1905;52.482;9.802;2022-10-03T07:05:33;3.60;;;2.20;;
3779;SDS011;1905;52.482;9.802;2022-10-03T07:08:34;5.80;;;2.50;;
3779;SDS011;1905;52.482;9.802;2022-10-03T07:11:25;2.60;;;2.17;;
3779;SDS011;1905;52.482;9.802;2022-10-03T07:17:30;5.73;;;1.80;;
3779;SDS011;1905;52.482;9.802;2022-10-03T07:20:17;7.97;;;1.70;;
3779;SDS011;1905;52.482;9.802;2022-10-03T07:26:41;4.83;;;2.23;;
3779;SDS011;1905;52.482;9.802;2022-10-03T07:29:23;4.60;;;1.93;;
3779;SDS011;1905;52.482;9.802;2022-10-03T07:32:09;6.43;;;2.00;;
3779;SDS011;1905;52.482;9.802;2022-10-03T07:34:52;4.03;;;2.30;;
3779;SDS011;1905;52.482;9.802;2022-10-03T07:37:44;4.00;;;1.90;;
3779;SDS011;1905;52.482;9.802;2022-10-03T07:40:56;6.50;;;2.20;;
3779;SDS011;1905;52.482;9.802;2022-10-03T07:43:52;12.20;;;3.20;;
3779;SDS011;1905;52.482;9.802;2022-10-03T07:46:47;5.93;;;2.13;;
3779;SDS011;1905;52.482;9.802;2022-10-03T07:49:49;7.90;;;2.17;;
3779;SDS011;1905;52.482;9.802;2022-10-03T07:52:43;4.30;;;2.10;;
3779;SDS011;1905;52.482;9.802;2022-10-03T07:55:30;7.93;;;3.13;;
3779;SDS011;1905;52.482;9.802;2022-10-03T07:58:20;6.23;;;2.47;;
3779;SDS011;1905;52.482;9.802;2022-10-03T08:01:01;2.27;;;1.77;;
3779;SDS011;1905;52.482;9.802;2022-10-03T08:03:48;10.13;;;3.03;;
3779;SDS011;1905;52.482;9.802;2022-10-03T08:06:35;6.93;;;2.57;;
3779;SDS011;1905;52.482;9.802;2022-10-03T08:09:19;8.60;;;3.27;;
3779;SDS011;1905;52.482;9.802;2022-10-03T08:14:55;7.32;;;2.20;;
3779;SDS011;1905;52.482;9.802;2022-10-03T08:17:45;3.97;;;2.28;;
3779;SDS011;1905;52.482;9.802;2022-10-03T08:20:39;7.10;;;2.00;;
3779;SDS011;1905;52.482;9.802;2022-10-03T08:23:28;7.60;;;2.10;;
3779;SDS011;1905;52.482;9.802;2022-10-03T08:26:35;5.93;;;2.10;;
3779;SDS011;1905;52.482;9.802;2022-10-03T08:29:21;6.13;;;3.17;;
3779;SDS011;1905;52.482;9.802;2022-10-03T08:38:09;6.87;;;3.20;;
3779;SDS011;1905;52.482;9.802;2022-10-03T08:41:06;3.57;;;2.13;;
3779;SDS011;1905;52.482;9.802;2022-10-03T08:44:09;14.23;;;2.20;;
3779;SDS011;1905;52.482;9.802;2022-10-03T08:52:51;3.93;;;2.00;;
3779;SDS011;1905;52.482;9.802;2022-10-03T08:55:43;10.80;;;2.37;;
3779;SDS011;1905;52.482;9.802;2022-10-03T09:01:26;4.83;;;2.13;;
3779;SDS011;1905;52.482;9.802;2022-10-03T09:04:24;10.07;;;2.07;;
3779;SDS011;1905;52.482;9.802;2022-10-03T09:07:13;8.53;;;2.17;;
3779;SDS011;1905;52.482;9.802;2022-10-03T09:13:09;7.50;;;2.60;;
3779;SDS011;1905;52.482;9.802;2022-10-03T09:15:58;7.73;;;2.30;;
3779;SDS011;1905;52.482;9.802;2022-10-03T09:18:49;4.10;;;1.90;;
3779;SDS011;1905;52.482;9.802;2022-10-03T09:21:39;10.63;;;2.63;;
3779;SDS011;1905;52.482;9.802;2022-10-03T09:27:38;6.13;;;2.03;;
3779;SDS011;1905;52.482;9.802;2022-10-03T09:30:20;4.87;;;2.20;;
3779;SDS011;1905;52.482;9.802;2022-10-03T09:36:18;7.13;;;1.77;;
3779;SDS011;1905;52.482;9.802;2022-10-03T09:42:42;9.03;;;2.30;;
3779;SDS011;1905;52.482;9.802;2022-10-03T09:45:42;4.73;;;2.30;;
3779;SDS011;1905;52.482;9.802;2022-10-03T09:48:37;11.50;;;2.40;;
3779;SDS011;1905;52.482;9.802;2022-10-03T09:51:31;5.07;;;1.67;;
3779;SDS011;1905;52.482;9.802;2022-10-03T09:54:09;7.73;;;1.90;;
3779;SDS011;1905;52.482;9.802;2022-10-03T10:09:24;3.90;;;1.20;;
3779;SDS011;1905;52.482;9.802;2022-10-03T10:12:29;4.83;;;2.10;;
3779;SDS011;1905;52.482;9.802;2022-10-03T10:15:21;7.83;;;1.60;;
3779;SDS011;1905;52.482;9.802;2022-10-03T10:24:12;2.90;;;1.53;;
3779;SDS011;1905;52.482;9.802;2022-10-03T10:27:08;5.70;;;1.67;;
3779;SDS011;1905;52.482;9.802;2022-10-03T10:30:14;6.30;;;2.10;;
3779;SDS011;1905;52.482;9.802;2022-10-03T10:36:31;4.20;;;2.17;;
3779;SDS011;1905;52.482;9.802;2022-10-03T10:39:40;5.50;;;2.17;;
3779;SDS011;1905;52.482;9.802;2022-10-03T10:45:42;4.63;;;1.53;;
3779;SDS011;1905;52.482;9.802;2022-10-03T11:01:46;2.03;;;1.40;;
3779;SDS011;1905;52.482;9.802;2022-10-03T11:08:21;2.03;;;1.17;;
3779;SDS011;1905;52.482;9.802;2022-10-03T11:15:12;3.80;;;1.47;;
3779;SDS011;1905;52.482;9.802;2022-10-03T11:18:05;6.53;;;2.50;;
3779;SDS011;1905;52.482;9.802;2022-10-03T11:21:32;2.97;;;1.93;;
3779;SDS011;1905;52.482;9.802;2022-10-03T11:36:53;3.50;;;1.27;;
3779;SDS011;1905;52.482;9.802;2022-10-03T11:39:58;3.37;;;1.53;;
3779;SDS011;1905;52.482;9.802;2022-10-03T11:42:44;3.83;;;1.70;;
3779;SDS011;1905;52.482;9.802;2022-10-03T11:45:24;6.33;;;1.50;;
3779;SDS011;1905;52.482;9.802;2022-10-03T11:48:07;3.27;;;1.53;;
3779;SDS011;1905;52.482;9.802;2022-10-03T11:50:46;1.70;;;1.60;;
3779;SDS011;1905;52.482;9.802;2022-10-03T12:02:12;3.13;;;1.40;;
3779;SDS011;1905;52.482;9.802;2022-10-03T12:04:51;5.13;;;1.37;;
3779;SDS011;1905;52.482;9.802;2022-10-03T12:07:35;3.17;;;1.00;;
3779;SDS011;1905;52.482;9.802;2022-10-03T12:10:32;5.27;;;1.97;;
3779;SDS011;1905;52.482;9.802;2022-10-03T12:13:08;5.13;;;2.00;;
3779;SDS011;1905;52.482;9.802;2022-10-03T12:15:40;4.33;;;1.40;;
3779;SDS011;1905;52.482;9.802;2022-10-03T12:18:13;3.83;;;1.43;;
3779;SDS011;1905;52.482;9.802;2022-10-03T12:20:59;4.73;;;1.43;;
3779;SDS011;1905;52.482;9.802;2022-10-03T12:26:27;1.50;;;1.30;;
3779;SDS011;1905;52.482;9.802;2022-10-03T12:29:09;4.83;;;2.40;;
3779;SDS011;1905;52.482;9.802;2022-10-03T12:31:39;4.03;;;1.30;;
3779;SDS011;1905;52.482;9.802;2022-10-03T12:34:20;1.30;;;1.20;;
3779;SDS011;1905;52.482;9.802;2022-10-03T12:37:06;4.57;;;1.90;;
3779;SDS011;1905;52.482;9.802;2022-10-03T12:39:51;4.20;;;1.80;;
3779;SDS011;1905;52.482;9.802;2022-10-03T12:42:32;2.33;;;1.53;;
3779;SDS011;1905;52.482;9.802;2022-10-03T12:45:08;2.83;;;1.63;;
3779;SDS011;1905;52.482;9.802;2022-10-03T12:47:55;3.87;;;2.80;;
3779;SDS011;1905;52.482;9.802;2022-10-03T12:50:36;3.93;;;1.63;;
3779;SDS011;1905;52.482;9.802;2022-10-03T12:53:21;4.97;;;1.87;;
3779;SDS011;1905;52.482;9.802;2022-10-03T12:55:57;6.20;;;2.30;;
3779;SDS011;1905;52.482;9.802;2022-10-03T12:58:33;5.23;;;1.70;;
3779;SDS011;1905;52.482;9.802;2022-10-03T13:01:10;2.80;;;1.80;;
3779;SDS011;1905;52.482;9.802;2022-10-03T13:03:49;1.63;;;1.50;;
3779;SDS011;1905;52.482;9.802;2022-10-03T13:09:35;5.60;;;1.30;;
3779;SDS011;1905;52.482;9.802;2022-10-03T13:12:22;5.20;;;1.53;;
3779;SDS011;1905;52.482;9.802;2022-10-03T13:18:13;2.40;;;1.20;;
3779;SDS011;1905;52.482;9.802;2022-10-03T13:20:50;5.50;;;1.50;;
3779;SDS011;1905;52.482;9.802;2022-10-03T13:23:27;3.00;;;1.30;;
3779;SDS011;1905;52.482;9.802;2022-10-03T13:26:07;7.77;;;1.70;;
3779;SDS011;1905;52.482;9.802;2022-10-03T13:28:55;3.77;;;1.50;;
3779;SDS011;1905;52.482;9.802;2022-10-03T13:31:56;2.87;;;2.70;;
3779;SDS011;1905;52.482;9.802;2022-10-03T13:34:40;4.97;;;1.73;;
3779;SDS011;1905;52.482;9.802;2022-10-03T13:37:14;2.73;;;1.47;;
3779;SDS011;1905;52.482;9.802;2022-10-03T13:39:51;2.20;;;1.10;;
3779;SDS011;1905;52.482;9.802;2022-10-03T13:42:33;3.43;;;1.53;;
3779;SDS011;1905;52.482;9.802;2022-10-03T13:45:28;3.00;;;1.10;;
3779;SDS011;1905;52.482;9.802;2022-10-03T13:47:57;3.17;;;1.70;;
3779;SDS011;1905;52.482;9.802;2022-10-03T13:50:32;4.78;;;1.30;;
3779;SDS011;1905;52.482;9.802;2022-10-03T13:53:10;4.13;;;1.20;;
3779;SDS011;1905;52.482;9.802;2022-10-03T13:55:45;2.83;;;1.30;;
3779;SDS011;1905;52.482;9.802;2022-10-03T13:58:27;3.23;;;1.50;;
3779;SDS011;1905;52.482;9.802;2022-10-03T14:01:09;2.80;;;1.40;;
3779;SDS011;1905;52.482;9.802;2022-10-03T14:03:51;3.53;;;1.40;;
3779;SDS011;1905;52.482;9.802;2022-10-03T14:06:34;2.00;;;1.10;;
3779;SDS011;1905;52.482;9.802;2022-10-03T14:12:11;4.40;;;1.10;;
3779;SDS011;1905;52.482;9.802;2022-10-03T14:15:16;2.20;;;1.23;;
3779;SDS011;1905;52.482;9.802;2022-10-03T14:17:57;4.83;;;1.80;;
3779;SDS011;1905;52.482;9.802;2022-10-03T14:20:33;4.67;;;2.10;;
3779;SDS011;1905;52.482;9.802;2022-10-03T14:23:25;3.47;;;1.90;;
3779;SDS011;1905;52.482;9.802;2022-10-03T14:26:01;2.93;;;1.60;;
3779;SDS011;1905;52.482;9.802;2022-10-03T14:28:36;4.53;;;1.80;;
3779;SDS011;1905;52.482;9.802;2022-10-03T14:31:13;1.63;;;1.50;;
3779;SDS011;1905;52.482;9.802;2022-10-03T14:33:51;5.90;;;2.03;;
3779;SDS011;1905;52.482;9.802;2022-10-03T14:36:30;4.33;;;3.63;;
3779;SDS011;1905;52.482;9.802;2022-10-03T14:39:19;2.97;;;1.57;;
3779;SDS011;1905;52.482;9.802;2022-10-03T14:42:03;1.37;;;1.23;;
3779;SDS011;1905;52.482;9.802;2022-10-03T14:44:53;2.37;;;1.80;;
3779;SDS011;1905;52.482;9.802;2022-10-03T14:47:25;2.67;;;1.60;;
3779;SDS011;1905;52.482;9.802;2022-10-03T14:50:00;3.10;;;1.73;;
3779;SDS011;1905;52.482;9.802;2022-10-03T14:52:29;1.70;;;1.40;;
3779;SDS011;1905;52.482;9.802;2022-10-03T14:55:06;5.53;;;1.63;;
3779;SDS011;1905;52.482;9.802;2022-10-03T14:57:40;10.43;;;2.23;;
3779;SDS011;1905;52.482;9.802;2022-10-03T15:00:33;6.43;;;1.80;;
3779;SDS011;1905;52.482;9.802;2022-10-03T15:03:20;5.07;;;1.27;;
3779;SDS011;1905;52.482;9.802;2022-10-03T15:05:56;7.20;;;1.67;;
3779;SDS011;1905;52.482;9.802;2022-10-03T15:08:28;2.10;;;1.20;;
3779;SDS011;1905;52.482;9.802;2022-10-03T15:11:00;1.67;;;1.57;;
3779;SDS011;1905;52.482;9.802;2022-10-03T15:13:31;3.38;;;1.30;;
3779;SDS011;1905;52.482;9.802;2022-10-03T15:16:02;4.67;;;1.30;;
3779;SDS011;1905;52.482;9.802;2022-10-03T15:18:32;4.03;;;1.47;;
3779;SDS011;1905;52.482;9.802;2022-10-03T15:21:01;4.60;;;1.47;;
3779;SDS011;1905;52.482;9.802;2022-10-03T15:23:30;2.30;;;1.17;;
3779;SDS011;1905;52.482;9.802;2022-10-03T15:26:00;2.83;;;1.37;;
3779;SDS011;1905;52.482;9.802;2022-10-03T15:28:35;5.00;;;1.67;;
3779;SDS011;1905;52.482;9.802;2022-10-03T15:31:07;5.13;;;1.80;;
3779;SDS011;1905;52.482;9.802;2022-10-03T15:33:40;1.43;;;1.20;;
3779;SDS011;1905;52.482;9.802;2022-10-03T15:36:10;4.40;;;1.80;;
3779;SDS011;1905;52.482;9.802;2022-10-03T15:38:41;4.10;;;1.53;;
3779;SDS011;1905;52.482;9.802;2022-10-03T15:41:13;2.63;;;1.23;;
3779;SDS011;1905;52.482;9.802;2022-10-03T15:43:43;6.77;;;1.83;;
3779;SDS011;1905;52.482;9.802;2022-10-03T15:46:20;3.37;;;1.53;;
3779;SDS011;1905;52.482;9.802;2022-10-03T15:48:57;3.10;;;1.83;;
3779;SDS011;1905;52.482;9.802;2022-10-03T15:51:27;2.13;;;1.40;;
3779;SDS011;1905;52.482;9.802;2022-10-03T15:53:58;3.70;;;1.60;;
3779;SDS011;1905;52.482;9.802;2022-10-03T15:56:28;2.63;;;1.60;;
3779;SDS011;1905;52.482;9.802;2022-10-03T15:59:00;2.80;;;1.57;;
3779;SDS011;1905;52.482;9.802;2022-10-03T16:01:33;6.47;;;4.13;;
3779;SDS011;1905;52.482;9.802;2022-10-03T16:04:11;1.20;;;1.10;;
3779;SDS011;1905;52.482;9.802;2022-10-03T16:06:44;3.97;;;1.50;;
3779;SDS011;1905;52.482;9.802;2022-10-03T16:09:17;2.40;;;1.50;;
3779;SDS011;1905;52.482;9.802;2022-10-03T16:11:55;4.60;;;1.60;;
3779;SDS011;1905;52.482;9.802;2022-10-03T16:14:31;4.93;;;2.03;;
3779;SDS011;1905;52.482;9.802;2022-10-03T16:17:10;8.07;;;4.10;;
3779;SDS011;1905;52.482;9.802;2022-10-03T16:19:48;6.20;;;3.23;;
3779;SDS011;1905;52.482;9.802;2022-10-03T16:22:21;2.50;;;2.07;;
3779;SDS011;1905;52.482;9.802;2022-10-03T16:25:00;5.27;;;2.73;;
3779;SDS011;1905;52.482;9.802;2022-10-03T16:27:33;3.90;;;2.43;;
3779;SDS011;1905;52.482;9.802;2022-10-03T16:30:18;6.13;;;2.30;;
3779;SDS011;1905;52.482;9.802;2022-10-03T16:32:49;4.07;;;1.70;;
3779;SDS011;1905;52.482;9.802;2022-10-03T16:35:29;3.47;;;1.50;;
3779;SDS011;1905;52.482;9.802;2022-10-03T16:38:04;20.97;;;8.20;;
3779;SDS011;1905;52.482;9.802;2022-10-03T16:41:04;3.77;;;2.00;;
3779;SDS011;1905;52.482;9.802;2022-10-03T16:43:41;4.57;;;1.60;;
3779;SDS011;1905;52.482;9.802;2022-10-03T16:46:21;4.13;;;2.60;;
3779;SDS011;1905;52.482;9.802;2022-10-03T16:48:56;22.17;;;10.47;;
3779;SDS011;1905;52.482;9.802;2022-10-03T16:51:49;19.30;;;8.70;;
3779;SDS011;1905;52.482;9.802;2022-10-03T16:54:34;2.73;;;2.00;;
3779;SDS011;1905;52.482;9.802;2022-10-03T16:57:07;3.57;;;1.70;;
3779;SDS011;1905;52.482;9.802;2022-10-03T16:59:41;4.50;;;2.47;;
3779;SDS011;1905;52.482;9.802;2022-10-03T17:02:13;10.70;;;2.63;;
3779;SDS011;1905;52.482;9.802;2022-10-03T17:04:46;5.50;;;2.00;;
3779;SDS011;1905;52.482;9.802;2022-10-03T17:07:17;3.47;;;1.83;;
3779;SDS011;1905;52.482;9.802;2022-10-03T17:09:49;8.40;;;1.90;;
3779;SDS011;1905;52.482;9.802;2022-10-03T17:12:21;4.10;;;1.60;;
3779;SDS011;1905;52.482;9.802;2022-10-03T17:14:53;9.40;;;5.40;;
3779;SDS011;1905;52.482;9.802;2022-10-03T17:17:24;5.53;;;4.67;;
3779;SDS011;1905;52.482;9.802;2022-10-03T17:19:57;9.97;;;5.60;;
3779;SDS011;1905;52.482;9.802;2022-10-03T17:22:35;7.10;;;4.37;;
3779;SDS011;1905;52.482;9.802;2022-10-03T17:25:07;10.53;;;6.00;;
3779;SDS011;1905;52.482;9.802;2022-10-03T17:28:04;7.70;;;4.00;;
3779;SDS011;1905;52.482;9.802;2022-10-03T17:30:38;8.07;;;4.30;;
3779;SDS011;1905;52.482;9.802;2022-10-03T17:33:12;4.47;;;3.07;;
3779;SDS011;1905;52.482;9.802;2022-10-03T17:35:51;5.17;;;3.70;;
3779;SDS011;1905;52.482;9.802;2022-10-03T17:38:28;6.20;;;3.70;;
3779;SDS011;1905;52.482;9.802;2022-10-03T17:41:17;5.50;;;4.73;;
3779;SDS011;1905;52.482;9.802;2022-10-03T17:43:48;9.45;;;4.45;;
3779;SDS011;1905;52.482;9.802;2022-10-03T17:46:34;11.03;;;4.70;;
3779;SDS011;1905;52.482;9.802;2022-10-03T17:49:16;7.50;;;3.97;;
3779;SDS011;1905;52.482;9.802;2022-10-03T17:51:48;5.00;;;3.90;;
3779;SDS011;1905;52.482;9.802;2022-10-03T17:54:20;3.50;;;3.20;;
3779;SDS011;1905;52.482;9.802;2022-10-03T17:56:53;6.10;;;3.07;;
3779;SDS011;1905;52.482;9.802;2022-10-03T17:59:25;5.07;;;3.37;;
3779;SDS011;1905;52.482;9.802;2022-10-03T18:01:56;6.77;;;3.10;;
3779;SDS011;1905;52.482;9.802;2022-10-03T18:04:34;2.90;;;2.20;;
3779;SDS011;1905;52.482;9.802;2022-10-03T18:07:05;3.70;;;2.17;;
3779;SDS011;1905;52.482;9.802;2022-10-03T18:09:37;4.60;;;2.00;;
3779;SDS011;1905;52.482;9.802;2022-10-03T18:12:13;4.30;;;3.00;;
3779;SDS011;1905;52.482;9.802;2022-10-03T18:14:56;7.67;;;5.60;;
3779;SDS011;1905;52.482;9.802;2022-10-03T18:17:46;6.50;;;4.20;;
3779;SDS011;1905;52.482;9.802;2022-10-03T18:20:29;4.90;;;3.33;;
3779;SDS011;1905;52.482;9.802;2022-10-03T18:23:09;9.82;;;7.10;;
3779;SDS011;1905;52.482;9.802;2022-10-03T18:25:59;5.93;;;4.27;;
3779;SDS011;1905;52.482;9.802;2022-10-03T18:28:47;10.63;;;7.33;;
3779;SDS011;1905;52.482;9.802;2022-10-03T18:31:21;18.93;;;10.00;;
3779;SDS011;1905;52.482;9.802;2022-10-03T18:33:53;17.10;;;8.50;;
3779;SDS011;1905;52.482;9.802;2022-10-03T18:36:24;15.67;;;9.87;;
3779;SDS011;1905;52.482;9.802;2022-10-03T18:38:56;8.93;;;5.23;;
3779;SDS011;1905;52.482;9.802;2022-10-03T18:41:27;5.27;;;4.70;;
3779;SDS011;1905;52.482;9.802;2022-10-03T18:43:56;7.50;;;4.83;;
3779;SDS011;1905;52.482;9.802;2022-10-03T18:46:26;5.47;;;4.73;;
3779;SDS011;1905;52.482;9.802;2022-10-03T18:48:57;4.32;;;3.33;;
3779;SDS011;1905;52.482;9.802;2022-10-03T18:51:49;5.33;;;3.23;;
3779;SDS011;1905;52.482;9.802;2022-10-03T18:54:27;4.27;;;2.37;;
3779;SDS011;1905;52.482;9.802;2022-10-03T18:57:07;2.80;;;2.60;;
3779;SDS011;1905;52.482;9.802;2022-10-03T18:59:43;6.43;;;2.80;;
3779;SDS011;1905;52.482;9.802;2022-10-03T19:02:18;2.40;;;2.20;;
3779;SDS011;1905;52.482;9.802;2022-10-03T19:04:51;2.13;;;1.93;;
3779;SDS011;1905;52.482;9.802;2022-10-03T19:07:23;1.67;;;1.30;;
3779;SDS011;1905;52.482;9.802;2022-10-03T19:10:08;2.67;;;1.60;;
3779;SDS011;1905;52.482;9.802;2022-10-03T19:12:49;3.57;;;2.00;;
3779;SDS011;1905;52.482;9.802;2022-10-03T19:15:23;4.83;;;1.83;;
3779;SDS011;1905;52.482;9.802;2022-10-03T19:18:06;9.40;;;1.90;;
3779;SDS011;1905;52.482;9.802;2022-10-03T19:20:48;6.17;;;2.70;;
3779;SDS011;1905;52.482;9.802;2022-10-03T19:23:20;5.07;;;2.13;;
3779;SDS011;1905;52.482;9.802;2022-10-03T19:25:53;6.35;;;3.80;;
3779;SDS011;1905;52.482;9.802;2022-10-03T19:28:26;3.43;;;2.77;;
3779;SDS011;1905;52.482;9.802;2022-10-03T19:30:59;3.93;;;1.97;;
3779;SDS011;1905;52.482;9.802;2022-10-03T19:33:31;7.57;;;4.00;;
3779;SDS011;1905;52.482;9.802;2022-10-03T19:36:02;13.73;;;7.80;;
3779;SDS011;1905;52.482;9.802;2022-10-03T19:38:32;12.03;;;6.17;;
3779;SDS011;1905;52.482;9.802;2022-10-03T19:41:06;10.83;;;6.63;;
3779;SDS011;1905;52.482;9.802;2022-10-03T19:43:42;10.20;;;7.47;;
3779;SDS011;1905;52.482;9.802;2022-10-03T19:46:14;9.77;;;5.70;;